Terminal Aerodrome Forecast
Issued by NWS Blacksburg, VA

Current Version | Previous Version | Graphics & Text | Print | Product List | Glossary On
Versions: 1 2 3 4 5 6 7 8 9 10 11 12 13 14 15 16 17 18 19 20 21
000
FTUS41 KRNK 180524
TAFBLF
TAF
KBLF 180524Z 1806/1906 18007KT P6SM BKN150
     FM181600 21011KT P6SM SCT035 BKN060
     FM190100 21013G21KT P6SM VCSH OVC035
     FM190300 25015G25KT P6SM -SHRA OVC010 WS020/23045KT
     FM190400 26015G25KT P6SM -SHRA OVC020=

USA.gov is the U.S. government's official web portal to all federal, state and local government web resources and services.